Aviation Digital Data Service (ADDS)

Output produced by TAFs form (2355 UTC 18 July 2018)
found at http://www.aviationweather.gov/adds/tafs/
 
METAR text: RJBD 182300Z VRB02KT 8000 FEW010 SCT020 BKN/// 28/26 Q1012
Conditions at: RJBD (NANKISHIRAHAMA A, JP) observed 2300 UTC 18 July 2018
Temperature: 28.0°C (82°F)
Dewpoint: 26.0°C (79°F) [RH = 89%]
Pressure (altimeter): 29.88 inches Hg (1012.0 mb)
Winds: variable direction winds at 2 MPH (2 knots; 1.0 m/s)
Visibility: 5 miles (8 km)
Ceiling: at least 12,000 feet AGL
Clouds: few clouds at 1000 feet AGL
scattered clouds at 2000 feet AGL
Weather: no significant weather observed at this time